createdAt,value
2016-06-18T00:02:08.699Z,1004.94
2016-06-18T00:05:26.427Z,1004.96
2016-06-18T00:08:31.563Z,1004.92
2016-06-18T00:11:45.324Z,1004.96
2016-06-18T00:14:59.118Z,1004.98
2016-06-18T00:18:12.488Z,1005.12
2016-06-18T00:21:30.233Z,1005.04
2016-06-18T00:24:35.119Z,1005.22
2016-06-18T00:27:48.398Z,1005.22
2016-06-18T00:31:01.908Z,1005.18
2016-06-18T00:34:15.575Z,1005.28
2016-06-18T00:37:28.039Z,1005.24
2016-06-18T00:40:42.924Z,1005.18
2016-06-18T00:43:56.813Z,1005.34
2016-06-18T00:47:10.573Z,1005.28
2016-06-18T00:53:33.453Z,1005.36
2016-06-18T00:56:46.948Z,1005.5
2016-06-18T01:00:00.571Z,1005.46
2016-06-18T01:03:14.206Z,1005.58
2016-06-18T01:06:26.577Z,1005.54
2016-06-18T01:09:41.477Z,1005.46
2016-06-18T01:12:55.194Z,1005.6
2016-06-18T01:16:08.642Z,1005.64
2016-06-18T01:19:26.059Z,1005.72
2016-06-18T01:22:30.944Z,1005.8
2016-06-18T01:25:44.595Z,1005.76
2016-06-18T01:28:58.406Z,1005.68
2016-06-18T01:32:12.292Z,1005.68
2016-06-18T01:35:33.067Z,1005.78
2016-06-18T01:38:35.063Z,1005.74
2016-06-18T01:41:48.854Z,1005.86
2016-06-18T01:45:02.337Z,1005.88
2016-06-18T01:48:16.143Z,1005.96
2016-06-18T01:51:29.169Z,1005.82
2016-06-18T01:54:42.527Z,1005.96
2016-06-18T01:57:56.218Z,1006.06
2016-06-18T02:01:09.942Z,1005.92
2016-06-18T02:04:27.580Z,1006.02
2016-06-18T02:07:32.592Z,1006.08
2016-06-18T02:10:46.322Z,1006.16
2016-06-18T02:14:00.024Z,1006.02
2016-06-18T02:17:13.269Z,1006
2016-06-18T02:20:30.920Z,1006.1
2016-06-18T02:23:35.899Z,1006.04
2016-06-18T02:26:49.144Z,1006.04
2016-06-18T02:30:03.096Z,1006.12
2016-06-18T02:33:16.543Z,1006.14
2016-06-18T02:36:30.460Z,1006.22
2016-06-18T02:39:44.252Z,1006.22
2016-06-18T02:42:58.090Z,1006.28
2016-06-18T02:46:11.978Z,1006.34
2016-06-18T02:49:29.693Z,1006.44
2016-06-18T02:52:34.484Z,1006.38
2016-06-18T02:55:48.322Z,1006.38
2016-06-18T02:59:02.274Z,1006.22
2016-06-18T03:02:16.143Z,1006.3
2016-06-18T03:05:29.903Z,1006.3
2016-06-18T03:08:43.367Z,1006.34
2016-06-18T03:11:57.393Z,1006.4
2016-06-18T03:15:10.485Z,1006.34
2016-06-18T03:18:28.184Z,1006.57
2016-06-18T03:21:33.053Z,1006.52
2016-06-18T03:24:46.813Z,1006.46
2016-06-18T03:28:00.495Z,1006.57
2016-06-18T03:31:14.025Z,1006.63
2016-06-18T03:34:27.785Z,1006.63
2016-06-18T03:37:41.389Z,1006.63
2016-06-18T03:40:55.072Z,1006.75
2016-06-18T03:44:08.664Z,1006.75
2016-06-18T03:47:26.096Z,1006.71
2016-06-18T03:50:31.106Z,1006.79
2016-06-18T03:53:44.461Z,1006.75
2016-06-18T03:56:57.986Z,1006.77
2016-06-18T04:00:11.125Z,1006.75
2016-06-18T04:03:28.526Z,1006.89
2016-06-18T04:06:33.333Z,1006.85
2016-06-18T04:09:47.031Z,1006.75
2016-06-18T04:13:00.744Z,1006.87
2016-06-18T04:16:14.136Z,1006.87
2016-06-18T04:19:31.466Z,1006.91
2016-06-18T04:22:36.104Z,1006.91
2016-06-18T04:25:49.664Z,1006.91
2016-06-18T04:29:03.113Z,1006.91
2016-06-18T04:32:16.596Z,1006.97
2016-06-18T04:35:29.794Z,1006.93
2016-06-18T04:38:42.898Z,1006.85
2016-06-18T04:41:56.189Z,1006.87
2016-06-18T04:45:09.704Z,1006.97
2016-06-18T04:48:27.074Z,1007.09
2016-06-18T04:51:31.881Z,1006.83
2016-06-18T04:54:44.969Z,1007.01
2016-06-18T04:57:58.652Z,1007.01
2016-06-18T05:01:12.149Z,1007.01
2016-06-18T05:04:29.816Z,1007.03
2016-06-18T05:07:34.686Z,1007.01
2016-06-18T05:10:48.430Z,1007.01
2016-06-18T05:14:01.973Z,1007.13
2016-06-18T05:17:14.346Z,1007.11
2016-06-18T05:20:29.199Z,1007.03
2016-06-18T05:23:42.617Z,1007.19
2016-06-18T05:27:00.252Z,1007.13
2016-06-18T05:30:09.469Z,1007.09
2016-06-18T05:33:27.105Z,1007.23
2016-06-18T05:36:30.552Z,1007.09
2016-06-18T05:39:45.359Z,1007.15
2016-06-18T05:42:59.183Z,1007.13
2016-06-18T05:46:12.821Z,1007.03
2016-06-18T05:49:30.300Z,1007.17
2016-06-18T05:52:35.420Z,1007.17
2016-06-18T05:55:49.117Z,1007.13
2016-06-18T05:59:02.988Z,1007.25
2016-06-18T06:02:17.017Z,1007.33
2016-06-18T06:05:30.840Z,1007.29
2016-06-18T06:08:44.928Z,1007.23
2016-06-18T06:11:58.986Z,1007.35
2016-06-18T06:15:12.671Z,1007.21
2016-06-18T06:18:30.682Z,1007.29
2016-06-18T06:21:36.004Z,1007.29
2016-06-18T06:24:50.374Z,1007.23
2016-06-18T06:28:04.589Z,1007.23
2016-06-18T06:31:22.809Z,1007.13
2016-06-18T06:34:28.429Z,1007.23
2016-06-18T06:37:42.596Z,1007.19
2016-06-18T06:40:56.904Z,1007.17
2016-06-18T06:44:11.339Z,1007.05
2016-06-18T06:47:29.647Z,1006.99
2016-06-18T06:50:34.502Z,1007.03
2016-06-18T06:53:50.183Z,1007.01
2016-06-18T06:57:04.975Z,1007.03
2016-06-18T07:00:23.708Z,1006.97
2016-06-18T07:03:29.859Z,1007.25
2016-06-18T07:06:42.651Z,1006.93
2016-06-18T07:09:57.661Z,1007.01
2016-06-18T07:13:12.721Z,1006.93
2016-06-18T07:16:27.716Z,1007.01
2016-06-18T07:19:42.477Z,1006.97
2016-06-18T07:22:54.252Z,1006.93
2016-06-18T07:26:06.106Z,1007.13
2016-06-18T07:29:24.401Z,1007.33
2016-06-18T07:32:30.616Z,1007.39
2016-06-18T07:35:44.860Z,1007.03
2016-06-18T07:38:59.714Z,1007.03
2016-06-18T07:42:14.134Z,1006.95
2016-06-18T07:45:29.285Z,1006.99
2016-06-18T07:48:44.467Z,1007.05
2016-06-18T07:51:59.353Z,1007.03
2016-06-18T07:55:18.351Z,1007.03
2016-06-18T07:58:29.034Z,1006.95
2016-06-18T08:01:43.403Z,1007.11
2016-06-18T08:04:58.366Z,1007.45
2016-06-18T08:08:13.115Z,1007.05
2016-06-18T08:11:26.984Z,1007.07
2016-06-18T08:14:42.775Z,1006.97
2016-06-18T08:17:57.646Z,1007.33
2016-06-18T08:21:12.032Z,1007.23
2016-06-18T08:24:30.873Z,1007.57
2016-06-18T08:27:36.868Z,1007.23
2016-06-18T08:30:51.941Z,1007.63
2016-06-18T08:34:06.264Z,1007.65
2016-06-18T08:37:24.605Z,1007.73
2016-06-18T08:40:30.538Z,1007.33
2016-06-18T08:43:45.347Z,1007.33
2016-06-18T08:47:04.594Z,1007.69
2016-06-18T08:47:27.516Z,1007.77
2016-06-18T08:50:40.393Z,1007.93
2016-06-18T08:53:58.392Z,1008.04
2016-06-18T08:57:07.778Z,1007.98
2016-06-18T09:00:25.915Z,1008.04
2016-06-18T09:03:30.492Z,1008
2016-06-18T09:06:45.690Z,1008.04
2016-06-18T09:10:00.264Z,1007.81
2016-06-18T09:13:15.383Z,1007.95
2016-06-18T09:16:29.237Z,1008
2016-06-18T09:22:59.150Z,1008
2016-06-18T09:26:12.648Z,1007.81
2016-06-18T09:29:28.972Z,1007.85
2016-06-18T09:32:43.967Z,1007.93
2016-06-18T09:35:58.806Z,1008.14
2016-06-18T09:39:12.804Z,1008.08
2016-06-18T09:42:27.158Z,1008.04
2016-06-18T09:45:41.465Z,1008.06
2016-06-18T09:48:55.865Z,1008.04
2016-06-18T09:52:10.880Z,1007.93
2016-06-18T09:55:29.687Z,1008.08
2016-06-18T09:58:35.713Z,1008.04
2016-06-18T10:01:50.191Z,1007.98
2016-06-18T10:05:04.546Z,1007.89
2016-06-18T10:08:22.857Z,1008.04
2016-06-18T10:11:28.664Z,1008.06
2016-06-18T10:14:42.940Z,1008.06
2016-06-18T10:17:57.372Z,1008.06
2016-06-18T10:21:11.793Z,1008.1
2016-06-18T10:24:29.881Z,1008.1
2016-06-18T10:27:35.375Z,1008.2
2016-06-18T10:30:49.635Z,1008.22
2016-06-18T10:34:04.037Z,1008.26
2016-06-18T10:37:22.425Z,1008.2
2016-06-18T10:40:28.217Z,1008.14
2016-06-18T10:43:42.634Z,1008.12
2016-06-18T10:46:57.207Z,1008.12
2016-06-18T10:50:11.643Z,1008.18
2016-06-18T10:53:29.637Z,1008.24
2016-06-18T10:56:35.304Z,1008.28
2016-06-18T10:59:49.690Z,1008.43
2016-06-18T11:03:03.762Z,1008.48
2016-06-18T11:06:21.979Z,1008.44
2016-06-18T11:09:27.662Z,1008.46
2016-06-18T11:12:41.485Z,1008.38
2016-06-18T11:15:52.416Z,1008.3
2016-06-18T11:19:06.615Z,1008.18
2016-06-18T11:22:24.957Z,1008.2
2016-06-18T11:25:30.637Z,1008.2
2016-06-18T11:28:44.885Z,1008.26
2016-06-18T11:31:59.099Z,1008.14
2016-06-18T11:41:15.276Z,1008.38
2016-06-18T11:44:33.068Z,1008.3
2016-06-18T11:47:40.970Z,1008.28
2016-06-18T11:50:55.046Z,1008.38
2016-06-18T11:54:09.260Z,1008.52
2016-06-18T11:57:27.426Z,1008.5
2016-06-18T12:00:33.080Z,1008.43
2016-06-18T12:03:47.358Z,1008.44
2016-06-18T12:07:01.921Z,1008.34
2016-06-18T12:10:16.354Z,1008.32
2016-06-18T12:13:30.645Z,1008.18
2016-06-18T12:16:44.766Z,1008.2
2016-06-18T12:19:59.156Z,1008.08
2016-06-18T12:23:13.525Z,1008.12
2016-06-18T12:26:31.927Z,1008.2
2016-06-18T12:29:37.609Z,1008.22
2016-06-18T12:32:51.857Z,1008.22
2016-06-18T12:36:06.227Z,1008.28
2016-06-18T12:39:24.284Z,1008.3
2016-06-18T12:42:30.013Z,1008.3
2016-06-18T12:45:44.196Z,1008.32
2016-06-18T12:48:57.147Z,1008.3
2016-06-18T12:52:11.486Z,1008.34
2016-06-18T12:55:29.638Z,1008.36
2016-06-18T12:58:35.290Z,1008.32
2016-06-18T13:01:49.753Z,1008.28
2016-06-18T13:05:03.829Z,1008.52
2016-06-18T13:08:21.339Z,1008.58
2016-06-18T13:11:28.710Z,1008.48
2016-06-18T13:14:42.188Z,1008.5
2016-06-18T13:17:56.529Z,1008.54
2016-06-18T13:21:10.681Z,1008.46
2016-06-18T13:24:28.740Z,1008.58
2016-06-18T13:27:34.379Z,1008.46
2016-06-18T13:30:48.672Z,1008.5
2016-06-18T13:34:02.876Z,1008.62
2016-06-18T13:37:17.184Z,1008.56
2016-06-18T13:40:31.428Z,1008.62
2016-06-18T13:43:45.595Z,1008.62
2016-06-18T13:46:59.906Z,1008.64
2016-06-18T13:50:13.963Z,1008.62
2016-06-18T13:53:28.427Z,1008.68
2016-06-18T13:56:42.656Z,1008.58
2016-06-18T13:59:57.133Z,1008.7
2016-06-18T14:03:10.971Z,1008.76
2016-06-18T14:06:29.698Z,1008.7
2016-06-18T14:09:34.255Z,1008.74
2016-06-18T14:12:48.329Z,1008.88
2016-06-18T14:16:02.248Z,1008.94
2016-06-18T14:19:16.243Z,1008.9
2016-06-18T14:22:30.410Z,1008.88
2016-06-18T14:25:49.796Z,1008.9
2016-06-18T14:28:58.556Z,1008.88
2016-06-18T14:32:12.478Z,1008.78
2016-06-18T14:35:30.729Z,1008.8
2016-06-18T14:38:36.071Z,1008.76
2016-06-18T14:41:50.194Z,1008.76
2016-06-18T14:45:04.491Z,1008.82
2016-06-18T14:48:18.393Z,1008.8
2016-06-18T14:51:32.465Z,1008.92
2016-06-18T14:54:46.600Z,1008.86
2016-06-18T14:58:00.689Z,1008.64
2016-06-18T15:01:14.546Z,1008.7
2016-06-18T15:04:32.479Z,1008.7
2016-06-18T15:07:37.975Z,1008.68
2016-06-18T15:10:52.224Z,1008.66
2016-06-18T15:14:06.708Z,1008.62
2016-06-18T15:17:24.938Z,1008.62
2016-06-18T15:20:30.480Z,1008.72
2016-06-18T15:23:44.570Z,1008.7
2016-06-18T15:26:58.581Z,1008.76
2016-06-18T15:30:12.703Z,1008.7
2016-06-18T15:33:30.730Z,1008.8
2016-06-18T15:36:36.271Z,1008.86
2016-06-18T15:39:50.109Z,1008.8
2016-06-18T15:43:04.193Z,1008.64
2016-06-18T15:46:18.108Z,1008.72
2016-06-18T15:49:31.742Z,1008.8
2016-06-18T15:52:45.893Z,1008.8
2016-06-18T15:55:59.950Z,1008.86
2016-06-18T15:59:14.151Z,1008.82
2016-06-18T16:02:32.256Z,1008.86
2016-06-18T16:05:37.579Z,1009
2016-06-18T16:08:51.308Z,1009.14
2016-06-18T16:12:05.303Z,1009.22
2016-06-18T16:15:23.253Z,1009.2
2016-06-18T16:18:32.577Z,1009.16
2016-06-18T16:21:37.806Z,1009.14
2016-06-18T16:24:51.910Z,1009.18
2016-06-18T16:28:05.983Z,1009.16
2016-06-18T16:31:23.762Z,1009.16
2016-06-18T16:34:29.133Z,1009.1
2016-06-18T16:37:42.986Z,1009.16
2016-06-18T16:40:56.996Z,1009.08
2016-06-18T16:44:11.276Z,1008.96
2016-06-18T16:47:29.256Z,1009.06
2016-06-18T16:50:34.609Z,1009.1
2016-06-18T16:53:48.791Z,1009.06
2016-06-18T16:57:02.589Z,1009.14
2016-06-18T17:00:16.468Z,1009.22
2016-06-18T17:03:30.199Z,1009.22
2016-06-18T17:06:43.961Z,1009.36
2016-06-18T17:09:58.033Z,1009.3
2016-06-18T17:13:11.482Z,1009.38
2016-06-18T17:16:29.480Z,1009.3
2016-06-18T17:19:34.818Z,1009.28
2016-06-18T17:22:48.531Z,1009.3
2016-06-18T17:26:02.604Z,1009.32
2016-06-18T17:29:16.009Z,1009.34
2016-06-18T17:32:30.051Z,1009.28
2016-06-18T17:35:44.045Z,1009.28
2016-06-18T17:38:58.180Z,1009.2
2016-06-18T17:42:12.019Z,1009.32
2016-06-18T17:45:30.096Z,1009.14
2016-06-18T17:48:35.371Z,1009.14
2016-06-18T17:51:49.445Z,1009.32
2016-06-18T17:55:03.408Z,1009.42
2016-06-18T17:58:17.235Z,1009.42
2016-06-18T18:01:30.950Z,1009.56
2016-06-18T18:04:44.805Z,1009.44
2016-06-18T18:07:58.551Z,1009.52
2016-06-18T18:11:12.467Z,1009.6
2016-06-18T18:14:30.403Z,1009.62
2016-06-18T18:17:35.617Z,1009.62
2016-06-18T18:20:49.549Z,1009.62
2016-06-18T18:24:03.496Z,1009.62
2016-06-18T18:27:17.413Z,1009.68
2016-06-18T18:30:31.396Z,1009.76
2016-06-18T18:33:45.406Z,1009.85
2016-06-18T18:36:59.260Z,1009.91
2016-06-18T18:40:13.240Z,1009.85
2016-06-18T18:43:31.237Z,1009.76
2016-06-18T18:46:36.420Z,1009.7
2016-06-18T18:49:50.649Z,1009.66
2016-06-18T18:53:03.441Z,1009.76
2016-06-18T18:56:16.982Z,1009.72
2016-06-18T18:59:30.699Z,1009.91
2016-06-18T19:02:44.506Z,1009.87
2016-06-18T19:05:58.534Z,1009.84
2016-06-18T19:09:12.203Z,1009.78
2016-06-18T19:12:29.939Z,1009.84
2016-06-18T19:15:35.294Z,1009.87
2016-06-18T19:18:49.179Z,1009.8
2016-06-18T19:22:02.986Z,1009.87
2016-06-18T19:25:17.090Z,1009.87
2016-06-18T19:28:31.089Z,1009.91
2016-06-18T19:31:44.943Z,1009.97
2016-06-18T19:34:58.985Z,1009.91
2016-06-18T19:38:12.870Z,1010.01
2016-06-18T19:41:30.665Z,1010.05
2016-06-18T19:44:35.925Z,1010.01
2016-06-18T19:47:49.825Z,1010.09
2016-06-18T19:51:03.727Z,1010.23
2016-06-18T19:54:17.691Z,1010.25
2016-06-18T19:57:31.642Z,1010.31
2016-06-18T20:00:45.512Z,1010.37
2016-06-18T20:03:59.506Z,1010.35
2016-06-18T20:07:13.376Z,1010.39
2016-06-18T20:10:31.360Z,1010.57
2016-06-18T20:13:35.541Z,1010.53
2016-06-18T20:16:50.397Z,1010.57
2016-06-18T20:20:04.143Z,1010.57
2016-06-18T20:23:18.029Z,1010.71
2016-06-18T20:26:31.855Z,1010.65
2016-06-18T20:29:45.382Z,1010.67
2016-06-18T20:32:58.829Z,1010.65
2016-06-18T20:36:12.761Z,1010.69
2016-06-18T20:39:30.431Z,1010.73
2016-06-18T20:42:35.519Z,1010.73
2016-06-18T20:45:49.468Z,1010.77
2016-06-18T20:49:03.479Z,1010.65
2016-06-18T20:52:17.411Z,1010.77
2016-06-18T20:55:30.878Z,1010.67
2016-06-18T20:58:44.560Z,1010.75
2016-06-18T21:01:57.945Z,1010.83
2016-06-18T21:05:11.706Z,1010.83
2016-06-18T21:08:29.767Z,1010.85
2016-06-18T21:11:34.902Z,1010.83
2016-06-18T21:14:48.678Z,1010.93
2016-06-18T21:18:02.563Z,1010.91
2016-06-18T21:21:16.073Z,1010.89
2016-06-18T21:24:30.049Z,1010.93
2016-06-18T21:27:43.885Z,1010.85
2016-06-18T21:30:57.743Z,1010.93
2016-06-18T21:34:11.629Z,1010.89
2016-06-18T21:37:29.594Z,1010.85
2016-06-18T21:40:34.781Z,1010.83
2016-06-18T21:43:48.510Z,1010.89
2016-06-18T21:47:02.270Z,1010.75
2016-06-18T21:50:16.015Z,1010.83
2016-06-18T21:53:29.979Z,1010.91
2016-06-18T21:56:43.915Z,1010.79
2016-06-18T21:59:57.737Z,1010.87
2016-06-18T22:03:11.513Z,1010.73
2016-06-18T22:06:29.149Z,1010.75
2016-06-18T22:09:34.194Z,1010.73
2016-06-18T22:12:47.720Z,1010.69
2016-06-18T22:16:01.589Z,1010.79
2016-06-18T22:19:15.303Z,1010.79
2016-06-18T22:22:33.188Z,1010.69
2016-06-18T22:25:38.139Z,1010.75
2016-06-18T22:28:51.806Z,1010.77
2016-06-18T22:32:05.476Z,1010.77
2016-06-18T22:35:19.239Z,1010.75
2016-06-18T22:38:33.001Z,1010.77
2016-06-18T22:41:46.718Z,1010.77
2016-06-18T22:45:00.588Z,1010.71
2016-06-18T22:48:14.348Z,1010.77
2016-06-18T22:51:31.859Z,1010.77
2016-06-18T22:54:35.792Z,1010.71
2016-06-18T22:57:50.523Z,1010.87
2016-06-18T23:01:03.971Z,1010.89
2016-06-18T23:04:17.732Z,1010.81
2016-06-18T23:07:31.336Z,1010.85
2016-06-18T23:10:45.100Z,1010.85
2016-06-18T23:13:58.625Z,1010.95
2016-06-18T23:17:12.261Z,1010.95
2016-06-18T23:20:29.897Z,1011.03
2016-06-18T23:23:34.954Z,1011.03
2016-06-18T23:26:47.265Z,1011.03
2016-06-18T23:30:02.134Z,1011.09
2016-06-18T23:33:16.019Z,1011.11
2016-06-18T23:36:29.843Z,1011.19
2016-06-18T23:39:43.578Z,1011.15
2016-06-18T23:42:57.357Z,1011.11
2016-06-18T23:46:10.869Z,1011.21
2016-06-18T23:49:28.629Z,1011.21
2016-06-18T23:52:33.953Z,1011.31
2016-06-18T23:55:47.498Z,1011.29
2016-06-18T23:59:01.399Z,1011.43
